sensor_id;sensor_type;location;lat;lon;timestamp;temperature;humidity
18581;DHT22;9420;50.876;7.012;2023-08-30T00:02:09;15.16;80.18
18581;DHT22;9420;50.876;7.012;2023-08-30T00:04:36;15.05;80.62
18581;DHT22;9420;50.876;7.012;2023-08-30T00:07:03;14.96;80.85
18581;DHT22;9420;50.876;7.012;2023-08-30T00:09:29;14.93;80.91
18581;DHT22;9420;50.876;7.012;2023-08-30T00:11:56;14.91;81.15
18581;DHT22;9420;50.876;7.012;2023-08-30T00:14:24;14.98;81.17
18581;DHT22;9420;50.876;7.012;2023-08-30T00:16:51;14.95;81.32
18581;DHT22;9420;50.876;7.012;2023-08-30T00:19:17;14.91;81.42
18581;DHT22;9420;50.876;7.012;2023-08-30T00:21:44;14.87;81.38
18581;DHT22;9420;50.876;7.012;2023-08-30T00:24:10;14.92;81.29
18581;DHT22;9420;50.876;7.012;2023-08-30T00:26:37;14.85;81.59
18581;DHT22;9420;50.876;7.012;2023-08-30T00:29:04;14.95;81.32
18581;DHT22;9420;50.876;7.012;2023-08-30T00:31:31;14.99;81.58
18581;DHT22;9420;50.876;7.012;2023-08-30T00:33:58;15.06;81.13
18581;DHT22;9420;50.876;7.012;2023-08-30T00:36:25;15.15;80.84
18581;DHT22;9420;50.876;7.012;2023-08-30T00:38:51;15.08;81.34
18581;DHT22;9420;50.876;7.012;2023-08-30T00:41:18;15.09;81.28
18581;DHT22;9420;50.876;7.012;2023-08-30T00:43:44;15.08;81.39
18581;DHT22;9420;50.876;7.012;2023-08-30T00:46:11;15.11;81.55
18581;DHT22;9420;50.876;7.012;2023-08-30T00:48:40;15.19;81.31
18581;DHT22;9420;50.876;7.012;2023-08-30T00:51:07;15.06;81.52
18581;DHT22;9420;50.876;7.012;2023-08-30T00:53:33;15.08;81.70
18581;DHT22;9420;50.876;7.012;2023-08-30T00:56:01;15.18;81.28
18581;DHT22;9420;50.876;7.012;2023-08-30T00:58:27;15.19;81.63
18581;DHT22;9420;50.876;7.012;2023-08-30T01:00:54;15.30;81.32
18581;DHT22;9420;50.876;7.012;2023-08-30T01:03:21;15.29;81.30
18581;DHT22;9420;50.876;7.012;2023-08-30T01:05:49;15.33;81.47
18581;DHT22;9420;50.876;7.012;2023-08-30T01:08:16;15.30;81.82
18581;DHT22;9420;50.876;7.012;2023-08-30T01:10:48;15.28;81.66
18581;DHT22;9420;50.876;7.012;2023-08-30T01:13:19;15.40;81.82
18581;DHT22;9420;50.876;7.012;2023-08-30T01:15:47;15.43;81.54
18581;DHT22;9420;50.876;7.012;2023-08-30T01:18:17;15.47;81.38
18581;DHT22;9420;50.876;7.012;2023-08-30T01:20:45;15.47;81.52
18581;DHT22;9420;50.876;7.012;2023-08-30T01:26:08;15.40;82.20
18581;DHT22;9420;50.876;7.012;2023-08-30T01:28:37;15.42;82.51
18581;DHT22;9420;50.876;7.012;2023-08-30T01:31:06;15.43;82.50
18581;DHT22;9420;50.876;7.012;2023-08-30T01:33:34;15.36;82.50
18581;DHT22;9420;50.876;7.012;2023-08-30T01:36:01;15.43;83.06
18581;DHT22;9420;50.876;7.012;2023-08-30T01:38:32;15.46;82.53
18581;DHT22;9420;50.876;7.012;2023-08-30T01:40:59;15.35;82.21
18581;DHT22;9420;50.876;7.012;2023-08-30T01:43:27;15.44;82.47
18581;DHT22;9420;50.876;7.012;2023-08-30T01:45:56;15.36;82.63
18581;DHT22;9420;50.876;7.012;2023-08-30T01:48:24;15.38;83.05
18581;DHT22;9420;50.876;7.012;2023-08-30T01:50:51;15.39;82.97
18581;DHT22;9420;50.876;7.012;2023-08-30T01:53:20;15.33;83.00
18581;DHT22;9420;50.876;7.012;2023-08-30T01:55:48;15.29;83.19
18581;DHT22;9420;50.876;7.012;2023-08-30T01:58:15;15.38;83.13
18581;DHT22;9420;50.876;7.012;2023-08-30T02:00:41;15.32;82.94
18581;DHT22;9420;50.876;7.012;2023-08-30T02:03:10;15.29;83.07
18581;DHT22;9420;50.876;7.012;2023-08-30T02:05:41;15.20;83.09
18581;DHT22;9420;50.876;7.012;2023-08-30T02:08:14;15.16;83.21
18581;DHT22;9420;50.876;7.012;2023-08-30T02:10:45;15.11;82.92
18581;DHT22;9420;50.876;7.012;2023-08-30T02:13:15;15.11;83.27
18581;DHT22;9420;50.876;7.012;2023-08-30T02:15:43;15.08;83.06
18581;DHT22;9420;50.876;7.012;2023-08-30T02:18:11;15.05;82.85
18581;DHT22;9420;50.876;7.012;2023-08-30T02:20:38;15.01;82.94
18581;DHT22;9420;50.876;7.012;2023-08-30T02:23:05;15.06;82.81
18581;DHT22;9420;50.876;7.012;2023-08-30T02:25:31;15.08;82.70
18581;DHT22;9420;50.876;7.012;2023-08-30T02:27:58;15.11;82.80
18581;DHT22;9420;50.876;7.012;2023-08-30T02:30:25;15.11;82.64
18581;DHT22;9420;50.876;7.012;2023-08-30T02:32:51;15.12;82.53
18581;DHT22;9420;50.876;7.012;2023-08-30T02:35:19;15.06;82.62
18581;DHT22;9420;50.876;7.012;2023-08-30T02:37:46;15.03;82.87
18581;DHT22;9420;50.876;7.012;2023-08-30T02:40:13;14.99;83.11
18581;DHT22;9420;50.876;7.012;2023-08-30T02:42:39;14.98;83.05
18581;DHT22;9420;50.876;7.012;2023-08-30T02:45:07;15.03;82.80
18581;DHT22;9420;50.876;7.012;2023-08-30T02:47:34;15.02;82.26
18581;DHT22;9420;50.876;7.012;2023-08-30T02:50:00;14.95;82.49
18581;DHT22;9420;50.876;7.012;2023-08-30T02:52:28;14.80;82.74
18581;DHT22;9420;50.876;7.012;2023-08-30T02:54:55;14.81;82.71
18581;DHT22;9420;50.876;7.012;2023-08-30T02:57:21;14.68;82.65
18581;DHT22;9420;50.876;7.012;2023-08-30T02:59:48;14.61;82.95
18581;DHT22;9420;50.876;7.012;2023-08-30T03:02:15;14.61;83.07
18581;DHT22;9420;50.876;7.012;2023-08-30T03:04:41;14.53;82.86
18581;DHT22;9420;50.876;7.012;2023-08-30T03:07:08;14.38;83.10
18581;DHT22;9420;50.876;7.012;2023-08-30T03:09:36;14.34;83.20
18581;DHT22;9420;50.876;7.012;2023-08-30T03:12:04;14.23;83.26
18581;DHT22;9420;50.876;7.012;2023-08-30T03:14:31;14.17;83.40
18581;DHT22;9420;50.876;7.012;2023-08-30T03:16:58;14.08;83.40
18581;DHT22;9420;50.876;7.012;2023-08-30T03:19:24;14.06;83.36
18581;DHT22;9420;50.876;7.012;2023-08-30T03:21:51;14.03;83.15
18581;DHT22;9420;50.876;7.012;2023-08-30T03:24:17;13.93;83.60
18581;DHT22;9420;50.876;7.012;2023-08-30T03:26:45;13.92;83.29
18581;DHT22;9420;50.876;7.012;2023-08-30T03:29:12;13.93;83.48
18581;DHT22;9420;50.876;7.012;2023-08-30T03:31:38;13.83;83.47
18581;DHT22;9420;50.876;7.012;2023-08-30T03:34:05;13.68;83.40
18581;DHT22;9420;50.876;7.012;2023-08-30T03:36:32;13.61;83.45
18581;DHT22;9420;50.876;7.012;2023-08-30T03:38:58;13.58;83.68
18581;DHT22;9420;50.876;7.012;2023-08-30T03:41:25;13.57;83.66
18581;DHT22;9420;50.876;7.012;2023-08-30T03:43:53;13.50;83.67
18581;DHT22;9420;50.876;7.012;2023-08-30T03:46:19;13.50;83.62
18581;DHT22;9420;50.876;7.012;2023-08-30T03:48:46;13.50;83.64
18581;DHT22;9420;50.876;7.012;2023-08-30T03:51:13;13.43;83.68
18581;DHT22;9420;50.876;7.012;2023-08-30T03:53:39;13.41;83.68
18581;DHT22;9420;50.876;7.012;2023-08-30T03:56:06;13.37;83.68
18581;DHT22;9420;50.876;7.012;2023-08-30T03:58:33;13.36;83.67
18581;DHT22;9420;50.876;7.012;2023-08-30T04:01:01;13.34;83.83
18581;DHT22;9420;50.876;7.012;2023-08-30T04:03:27;13.24;83.66
18581;DHT22;9420;50.876;7.012;2023-08-30T04:05:54;13.23;83.80
18581;DHT22;9420;50.876;7.012;2023-08-30T04:08:22;13.16;83.69
18581;DHT22;9420;50.876;7.012;2023-08-30T04:10:51;13.21;83.49
18581;DHT22;9420;50.876;7.012;2023-08-30T04:13:18;13.13;83.77
18581;DHT22;9420;50.876;7.012;2023-08-30T04:15:45;13.08;83.90
18581;DHT22;9420;50.876;7.012;2023-08-30T04:18:13;13.23;83.45
18581;DHT22;9420;50.876;7.012;2023-08-30T04:20:43;13.23;83.90
18581;DHT22;9420;50.876;7.012;2023-08-30T04:23:10;13.16;83.86
18581;DHT22;9420;50.876;7.012;2023-08-30T04:25:37;13.18;84.08
18581;DHT22;9420;50.876;7.012;2023-08-30T04:28:04;13.07;84.19
18581;DHT22;9420;50.876;7.012;2023-08-30T04:30:31;13.26;84.23
18581;DHT22;9420;50.876;7.012;2023-08-30T04:32:58;13.20;84.07
18581;DHT22;9420;50.876;7.012;2023-08-30T04:35:27;13.27;83.90
18581;DHT22;9420;50.876;7.012;2023-08-30T04:37:54;13.17;84.29
18581;DHT22;9420;50.876;7.012;2023-08-30T04:40:21;13.13;84.31
18581;DHT22;9420;50.876;7.012;2023-08-30T04:42:47;13.18;84.31
18581;DHT22;9420;50.876;7.012;2023-08-30T04:45:14;13.24;84.27
18581;DHT22;9420;50.876;7.012;2023-08-30T04:47:41;13.21;84.19
18581;DHT22;9420;50.876;7.012;2023-08-30T04:50:10;13.34;84.42
18581;DHT22;9420;50.876;7.012;2023-08-30T04:52:39;13.36;84.21
18581;DHT22;9420;50.876;7.012;2023-08-30T04:55:06;13.37;84.25
18581;DHT22;9420;50.876;7.012;2023-08-30T04:57:33;13.28;84.46
18581;DHT22;9420;50.876;7.012;2023-08-30T05:00:00;13.30;84.58
18581;DHT22;9420;50.876;7.012;2023-08-30T05:02:30;13.44;84.51
18581;DHT22;9420;50.876;7.012;2023-08-30T05:04:57;13.34;84.56
18581;DHT22;9420;50.876;7.012;2023-08-30T05:07:23;13.28;84.53
18581;DHT22;9420;50.876;7.012;2023-08-30T05:09:51;13.34;84.25
18581;DHT22;9420;50.876;7.012;2023-08-30T05:12:18;13.40;84.21
18581;DHT22;9420;50.876;7.012;2023-08-30T05:14:45;13.40;84.31
18581;DHT22;9420;50.876;7.012;2023-08-30T05:17:11;13.54;84.23
18581;DHT22;9420;50.876;7.012;2023-08-30T05:19:38;13.50;84.33
18581;DHT22;9420;50.876;7.012;2023-08-30T05:22:04;13.45;84.57
18581;DHT22;9420;50.876;7.012;2023-08-30T05:24:31;13.55;84.39
18581;DHT22;9420;50.876;7.012;2023-08-30T05:27:00;13.57;84.32
18581;DHT22;9420;50.876;7.012;2023-08-30T05:29:27;13.58;84.59
18581;DHT22;9420;50.876;7.012;2023-08-30T05:31:53;13.61;84.36
18581;DHT22;9420;50.876;7.012;2023-08-30T05:34:20;13.66;84.59
18581;DHT22;9420;50.876;7.012;2023-08-30T05:36:46;13.72;84.08
18581;DHT22;9420;50.876;7.012;2023-08-30T05:39:13;13.62;84.42
18581;DHT22;9420;50.876;7.012;2023-08-30T05:41:40;13.57;84.60
18581;DHT22;9420;50.876;7.012;2023-08-30T05:44:08;13.74;84.39
18581;DHT22;9420;50.876;7.012;2023-08-30T05:46:37;13.75;84.62
18581;DHT22;9420;50.876;7.012;2023-08-30T05:49:04;13.87;84.41
18581;DHT22;9420;50.876;7.012;2023-08-30T05:51:30;13.87;84.41
18581;DHT22;9420;50.876;7.012;2023-08-30T05:53:58;13.98;84.10
18581;DHT22;9420;50.876;7.012;2023-08-30T05:56:25;13.96;84.21
18581;DHT22;9420;50.876;7.012;2023-08-30T05:58:52;14.08;83.79
18581;DHT22;9420;50.876;7.012;2023-08-30T06:01:20;14.12;83.87
18581;DHT22;9420;50.876;7.012;2023-08-30T06:03:46;14.12;84.05
18581;DHT22;9420;50.876;7.012;2023-08-30T06:06:13;14.12;84.02
18581;DHT22;9420;50.876;7.012;2023-08-30T06:08:40;14.05;83.99
18581;DHT22;9420;50.876;7.012;2023-08-30T06:11:07;14.17;83.56
18581;DHT22;9420;50.876;7.012;2023-08-30T06:13:33;14.22;83.89
18581;DHT22;9420;50.876;7.012;2023-08-30T06:16:00;14.16;83.94
18581;DHT22;9420;50.876;7.012;2023-08-30T06:18:31;14.27;83.78
18581;DHT22;9420;50.876;7.012;2023-08-30T06:20:58;14.37;83.68
18581;DHT22;9420;50.876;7.012;2023-08-30T06:23:25;14.50;83.27
18581;DHT22;9420;50.876;7.012;2023-08-30T06:25:55;14.67;82.96
18581;DHT22;9420;50.876;7.012;2023-08-30T06:28:22;14.68;83.01
18581;DHT22;9420;50.876;7.012;2023-08-30T06:30:48;14.74;83.02
18581;DHT22;9420;50.876;7.012;2023-08-30T06:33:16;14.68;83.26
18581;DHT22;9420;50.876;7.012;2023-08-30T06:36:01;14.88;82.87
18581;DHT22;9420;50.876;7.012;2023-08-30T06:38:27;15.06;82.22
18581;DHT22;9420;50.876;7.012;2023-08-30T06:40:57;15.13;82.21
18581;DHT22;9420;50.876;7.012;2023-08-30T06:43:24;15.30;81.82
18581;DHT22;9420;50.876;7.012;2023-08-30T06:45:51;15.38;81.56
18581;DHT22;9420;50.876;7.012;2023-08-30T06:48:18;15.56;81.02
18581;DHT22;9420;50.876;7.012;2023-08-30T06:50:45;15.73;80.61
18581;DHT22;9420;50.876;7.012;2023-08-30T06:53:13;15.81;80.68
18581;DHT22;9420;50.876;7.012;2023-08-30T06:55:40;15.97;80.14
18581;DHT22;9420;50.876;7.012;2023-08-30T06:58:07;16.22;79.35
18581;DHT22;9420;50.876;7.012;2023-08-30T07:00:33;16.35;79.31
18581;DHT22;9420;50.876;7.012;2023-08-30T07:03:00;16.42;79.72
18581;DHT22;9420;50.876;7.012;2023-08-30T07:05:26;16.62;78.14
18581;DHT22;9420;50.876;7.012;2023-08-30T07:07:53;16.80;77.46
18581;DHT22;9420;50.876;7.012;2023-08-30T07:10:21;17.03;77.70
18581;DHT22;9420;50.876;7.012;2023-08-30T07:12:48;17.06;77.67
18581;DHT22;9420;50.876;7.012;2023-08-30T07:15:15;17.30;77.11
18581;DHT22;9420;50.876;7.012;2023-08-30T07:17:42;17.35;76.17
18581;DHT22;9420;50.876;7.012;2023-08-30T07:20:10;17.31;76.84
18581;DHT22;9420;50.876;7.012;2023-08-30T07:22:36;17.54;75.04
18581;DHT22;9420;50.876;7.012;2023-08-30T07:25:04;17.48;73.90
18581;DHT22;9420;50.876;7.012;2023-08-30T07:27:32;17.44;75.17
18581;DHT22;9420;50.876;7.012;2023-08-30T07:29:59;17.54;75.29
18581;DHT22;9420;50.876;7.012;2023-08-30T07:32:25;17.59;74.69
18581;DHT22;9420;50.876;7.012;2023-08-30T07:34:52;17.61;74.48
18581;DHT22;9420;50.876;7.012;2023-08-30T07:39:55;17.69;73.42
18581;DHT22;9420;50.876;7.012;2023-08-30T07:45:00;17.87;72.57
18581;DHT22;9420;50.876;7.012;2023-08-30T07:47:26;18.14;73.13
18581;DHT22;9420;50.876;7.012;2023-08-30T07:49:53;18.04;74.09
18581;DHT22;9420;50.876;7.012;2023-08-30T07:52:19;18.33;72.77
18581;DHT22;9420;50.876;7.012;2023-08-30T07:54:46;18.40;73.74
18581;DHT22;9420;50.876;7.012;2023-08-30T07:57:13;18.33;73.65
18581;DHT22;9420;50.876;7.012;2023-08-30T07:59:39;18.44;69.72
18581;DHT22;9420;50.876;7.012;2023-08-30T08:02:08;18.67;69.05
18581;DHT22;9420;50.876;7.012;2023-08-30T08:04:35;18.94;68.75
18581;DHT22;9420;50.876;7.012;2023-08-30T08:07:02;19.08;68.71
18581;DHT22;9420;50.876;7.012;2023-08-30T08:09:30;19.26;68.27
18581;DHT22;9420;50.876;7.012;2023-08-30T08:11:56;19.33;68.44
18581;DHT22;9420;50.876;7.012;2023-08-30T08:14:23;19.56;67.33
18581;DHT22;9420;50.876;7.012;2023-08-30T08:16:50;19.47;64.44
18581;DHT22;9420;50.876;7.012;2023-08-30T08:19:18;19.36;65.62
18581;DHT22;9420;50.876;7.012;2023-08-30T08:21:45;19.40;64.34
18581;DHT22;9420;50.876;7.012;2023-08-30T08:24:12;19.57;66.35
18581;DHT22;9420;50.876;7.012;2023-08-30T08:26:39;19.61;64.93
18581;DHT22;9420;50.876;7.012;2023-08-30T08:29:05;19.43;64.22
18581;DHT22;9420;50.876;7.012;2023-08-30T08:31:32;19.44;62.92
18581;DHT22;9420;50.876;7.012;2023-08-30T08:34:07;19.49;62.93
18581;DHT22;9420;50.876;7.012;2023-08-30T08:36:36;19.79;64.01
18581;DHT22;9420;50.876;7.012;2023-08-30T08:39:03;19.82;62.27
18581;DHT22;9420;50.876;7.012;2023-08-30T08:41:35;19.96;62.56
18581;DHT22;9420;50.876;7.012;2023-08-30T08:44:04;20.35;63.43
18581;DHT22;9420;50.876;7.012;2023-08-30T08:46:32;20.36;62.33
18581;DHT22;9420;50.876;7.012;2023-08-30T08:49:01;20.54;62.59
18581;DHT22;9420;50.876;7.012;2023-08-30T08:51:32;20.63;61.54
18581;DHT22;9420;50.876;7.012;2023-08-30T08:54:03;20.47;58.11
18581;DHT22;9420;50.876;7.012;2023-08-30T08:56:30;20.52;59.87
18581;DHT22;9420;50.876;7.012;2023-08-30T08:58:57;20.83;59.26
18581;DHT22;9420;50.876;7.012;2023-08-30T09:01:25;20.84;59.36
18581;DHT22;9420;50.876;7.012;2023-08-30T09:03:51;21.14;57.18
18581;DHT22;9420;50.876;7.012;2023-08-30T09:06:18;21.35;57.14
18581;DHT22;9420;50.876;7.012;2023-08-30T09:08:45;21.37;58.10
18581;DHT22;9420;50.876;7.012;2023-08-30T09:11:13;21.20;59.79
18581;DHT22;9420;50.876;7.012;2023-08-30T09:13:42;20.97;58.46
18581;DHT22;9420;50.876;7.012;2023-08-30T09:16:12;20.90;58.93
18581;DHT22;9420;50.876;7.012;2023-08-30T09:18:39;20.79;56.54
18581;DHT22;9420;50.876;7.012;2023-08-30T09:21:06;20.33;56.43
18581;DHT22;9420;50.876;7.012;2023-08-30T09:23:33;20.32;59.79
18581;DHT22;9420;50.876;7.012;2023-08-30T09:26:01;20.26;59.60
18581;DHT22;9420;50.876;7.012;2023-08-30T09:28:30;20.08;60.08
18581;DHT22;9420;50.876;7.012;2023-08-30T09:30:58;19.85;60.62
18581;DHT22;9420;50.876;7.012;2023-08-30T09:33:33;19.71;60.13
18581;DHT22;9420;50.876;7.012;2023-08-30T09:36:00;19.73;63.00
18581;DHT22;9420;50.876;7.012;2023-08-30T09:38:26;19.86;65.11
18581;DHT22;9420;50.876;7.012;2023-08-30T09:41:02;19.78;63.93
18581;DHT22;9420;50.876;7.012;2023-08-30T09:43:32;19.57;66.06
18581;DHT22;9420;50.876;7.012;2023-08-30T09:45:58;19.51;62.60
18581;DHT22;9420;50.876;7.012;2023-08-30T09:48:29;19.53;62.35
18581;DHT22;9420;50.876;7.012;2023-08-30T09:50:57;19.60;63.08
18581;DHT22;9420;50.876;7.012;2023-08-30T09:53:25;19.58;64.71
18581;DHT22;9420;50.876;7.012;2023-08-30T09:55:53;19.40;63.58
18581;DHT22;9420;50.876;7.012;2023-08-30T09:58:21;19.33;65.44
18581;DHT22;9420;50.876;7.012;2023-08-30T10:00:49;19.24;69.13
18581;DHT22;9420;50.876;7.012;2023-08-30T10:03:16;18.72;66.00
18581;DHT22;9420;50.876;7.012;2023-08-30T10:05:44;18.36;67.29
18581;DHT22;9420;50.876;7.012;2023-08-30T10:08:11;18.16;66.69
18581;DHT22;9420;50.876;7.012;2023-08-30T10:10:39;18.18;67.35
18581;DHT22;9420;50.876;7.012;2023-08-30T10:13:06;18.23;68.73
18581;DHT22;9420;50.876;7.012;2023-08-30T10:15:35;18.24;68.59
18581;DHT22;9420;50.876;7.012;2023-08-30T10:18:07;18.16;69.85
18581;DHT22;9420;50.876;7.012;2023-08-30T10:20:37;18.17;71.32
18581;DHT22;9420;50.876;7.012;2023-08-30T10:23:04;18.34;71.15
18581;DHT22;9420;50.876;7.012;2023-08-30T10:25:32;18.41;71.88
18581;DHT22;9420;50.876;7.012;2023-08-30T10:27:59;18.61;69.43
18581;DHT22;9420;50.876;7.012;2023-08-30T10:30:26;18.68;67.67
18581;DHT22;9420;50.876;7.012;2023-08-30T10:32:53;18.64;67.82
18581;DHT22;9420;50.876;7.012;2023-08-30T10:35:21;18.67;68.62
18581;DHT22;9420;50.876;7.012;2023-08-30T10:37:54;18.98;69.01
18581;DHT22;9420;50.876;7.012;2023-08-30T10:40:21;19.26;70.91
18581;DHT22;9420;50.876;7.012;2023-08-30T10:42:58;19.54;70.94
18581;DHT22;9420;50.876;7.012;2023-08-30T10:45:25;19.57;71.05
18581;DHT22;9420;50.876;7.012;2023-08-30T10:47:54;19.64;71.08
18581;DHT22;9420;50.876;7.012;2023-08-30T10:50:28;19.60;71.72
18581;DHT22;9420;50.876;7.012;2023-08-30T10:52:56;19.60;71.45
18581;DHT22;9420;50.876;7.012;2023-08-30T10:55:23;19.94;70.97
18581;DHT22;9420;50.876;7.012;2023-08-30T10:57:58;20.22;70.72
18581;DHT22;9420;50.876;7.012;2023-08-30T11:00:28;20.62;69.56
18581;DHT22;9420;50.876;7.012;2023-08-30T11:05:22;20.80;69.80
18581;DHT22;9420;50.876;7.012;2023-08-30T11:10:30;20.37;68.16
18581;DHT22;9420;50.876;7.012;2023-08-30T11:12:57;20.01;66.15
18581;DHT22;9420;50.876;7.012;2023-08-30T11:18:06;19.36;66.49
18581;DHT22;9420;50.876;7.012;2023-08-30T11:20:33;19.22;67.13
18581;DHT22;9420;50.876;7.012;2023-08-30T11:23:02;19.22;65.61
18581;DHT22;9420;50.876;7.012;2023-08-30T11:25:32;17.93;73.32
18581;DHT22;9420;50.876;7.012;2023-08-30T11:28:02;17.23;77.26
18581;DHT22;9420;50.876;7.012;2023-08-30T11:30:29;16.69;79.69
18581;DHT22;9420;50.876;7.012;2023-08-30T11:32:57;16.45;81.72
18581;DHT22;9420;50.876;7.012;2023-08-30T11:35:24;16.35;82.59
18581;DHT22;9420;50.876;7.012;2023-08-30T11:37:51;16.29;83.09
18581;DHT22;9420;50.876;7.012;2023-08-30T11:40:20;16.05;83.42
18581;DHT22;9420;50.876;7.012;2023-08-30T11:42:48;16.00;84.38
18581;DHT22;9420;50.876;7.012;2023-08-30T11:45:15;16.04;85.00
18581;DHT22;9420;50.876;7.012;2023-08-30T11:47:42;16.02;83.65
18581;DHT22;9420;50.876;7.012;2023-08-30T11:50:09;16.17;84.96
18581;DHT22;9420;50.876;7.012;2023-08-30T11:52:37;16.24;85.00
18581;DHT22;9420;50.876;7.012;2023-08-30T11:55:06;16.24;84.92
18581;DHT22;9420;50.876;7.012;2023-08-30T11:57:33;16.05;84.54
18581;DHT22;9420;50.876;7.012;2023-08-30T12:00:08;16.35;84.40
18581;DHT22;9420;50.876;7.012;2023-08-30T12:02:35;16.36;84.44
18581;DHT22;9420;50.876;7.012;2023-08-30T12:05:02;16.51;84.55
18581;DHT22;9420;50.876;7.012;2023-08-30T12:07:29;16.42;84.21
18581;DHT22;9420;50.876;7.012;2023-08-30T12:20:56;16.45;84.28
18581;DHT22;9420;50.876;7.012;2023-08-30T12:31:13;16.29;85.27
18581;DHT22;9420;50.876;7.012;2023-08-30T12:33:39;16.26;85.66
18581;DHT22;9420;50.876;7.012;2023-08-30T12:36:08;16.14;85.10
18581;DHT22;9420;50.876;7.012;2023-08-30T12:38:34;16.07;85.37
18581;DHT22;9420;50.876;7.012;2023-08-30T12:41:01;16.01;85.63
18581;DHT22;9420;50.876;7.012;2023-08-30T12:43:28;15.94;85.82
18581;DHT22;9420;50.876;7.012;2023-08-30T12:45:55;15.77;85.82
18581;DHT22;9420;50.876;7.012;2023-08-30T12:48:22;15.86;85.92
18581;DHT22;9420;50.876;7.012;2023-08-30T12:50:48;15.84;86.65
18581;DHT22;9420;50.876;7.012;2023-08-30T12:53:17;15.86;86.40
18581;DHT22;9420;50.876;7.012;2023-08-30T12:55:44;15.74;86.70
18581;DHT22;9420;50.876;7.012;2023-08-30T12:58:14;15.70;86.53
18581;DHT22;9420;50.876;7.012;2023-08-30T13:00:41;15.76;86.42
18581;DHT22;9420;50.876;7.012;2023-08-30T13:03:07;15.76;86.77
18581;DHT22;9420;50.876;7.012;2023-08-30T13:05:34;15.83;86.55
18581;DHT22;9420;50.876;7.012;2023-08-30T13:08:01;15.83;86.35
18581;DHT22;9420;50.876;7.012;2023-08-30T13:10:29;15.91;86.67
18581;DHT22;9420;50.876;7.012;2023-08-30T13:12:56;15.94;86.04
18581;DHT22;9420;50.876;7.012;2023-08-30T13:15:23;15.88;86.40
18581;DHT22;9420;50.876;7.012;2023-08-30T13:17:50;15.88;86.83
18581;DHT22;9420;50.876;7.012;2023-08-30T13:20:17;15.97;86.36
18581;DHT22;9420;50.876;7.012;2023-08-30T13:22:45;15.87;86.41
18581;DHT22;9420;50.876;7.012;2023-08-30T13:25:12;15.86;86.65
18581;DHT22;9420;50.876;7.012;2023-08-30T13:27:40;15.93;86.65
18581;DHT22;9420;50.876;7.012;2023-08-30T13:30:07;15.96;87.01
18581;DHT22;9420;50.876;7.012;2023-08-30T13:32:33;15.94;86.45
18581;DHT22;9420;50.876;7.012;2023-08-30T13:35:01;15.90;86.57
18581;DHT22;9420;50.876;7.012;2023-08-30T13:37:28;15.97;86.79
18581;DHT22;9420;50.876;7.012;2023-08-30T13:39:54;15.98;86.62
18581;DHT22;9420;50.876;7.012;2023-08-30T13:42:21;16.05;86.68
18581;DHT22;9420;50.876;7.012;2023-08-30T13:44:51;16.15;86.91
18581;DHT22;9420;50.876;7.012;2023-08-30T13:47:19;16.18;87.14
18581;DHT22;9420;50.876;7.012;2023-08-30T13:49:46;15.98;86.38
18581;DHT22;9420;50.876;7.012;2023-08-30T13:52:12;15.90;87.20
18581;DHT22;9420;50.876;7.012;2023-08-30T13:54:39;15.87;87.56
18581;DHT22;9420;50.876;7.012;2023-08-30T13:57:06;15.64;87.89
18581;DHT22;9420;50.876;7.012;2023-08-30T13:59:33;15.59;88.36
18581;DHT22;9420;50.876;7.012;2023-08-30T14:02:02;15.03;86.84
18581;DHT22;9420;50.876;7.012;2023-08-30T14:04:29;15.02;86.89
18581;DHT22;9420;50.876;7.012;2023-08-30T14:06:58;14.92;86.54
18581;DHT22;9420;50.876;7.012;2023-08-30T14:09:25;15.03;87.17
18581;DHT22;9420;50.876;7.012;2023-08-30T14:11:51;14.93;87.07
18581;DHT22;9420;50.876;7.012;2023-08-30T14:14:18;14.88;87.78
18581;DHT22;9420;50.876;7.012;2023-08-30T14:16:45;15.08;87.27
18581;DHT22;9420;50.876;7.012;2023-08-30T14:19:15;15.06;87.00
18581;DHT22;9420;50.876;7.012;2023-08-30T14:21:41;15.20;86.90
18581;DHT22;9420;50.876;7.012;2023-08-30T14:24:08;15.09;87.03
18581;DHT22;9420;50.876;7.012;2023-08-30T14:26:35;15.05;87.24
18581;DHT22;9420;50.876;7.012;2023-08-30T14:29:01;15.01;87.22
18581;DHT22;9420;50.876;7.012;2023-08-30T14:31:28;14.99;87.69
18581;DHT22;9420;50.876;7.012;2023-08-30T14:33:56;14.99;87.17
18581;DHT22;9420;50.876;7.012;2023-08-30T14:36:24;14.93;87.43
18581;DHT22;9420;50.876;7.012;2023-08-30T14:38:51;14.87;87.90
18581;DHT22;9420;50.876;7.012;2023-08-30T14:41:18;14.93;87.77
18581;DHT22;9420;50.876;7.012;2023-08-30T14:43:44;14.89;87.82
18581;DHT22;9420;50.876;7.012;2023-08-30T14:46:12;14.91;87.98
18581;DHT22;9420;50.876;7.012;2023-08-30T14:48:41;15.02;87.82
18581;DHT22;9420;50.876;7.012;2023-08-30T14:51:08;15.15;87.56
18581;DHT22;9420;50.876;7.012;2023-08-30T14:53:36;15.26;87.13
18581;DHT22;9420;50.876;7.012;2023-08-30T14:56:02;15.30;86.71
18581;DHT22;9420;50.876;7.012;2023-08-30T14:58:32;15.25;86.32
18581;DHT22;9420;50.876;7.012;2023-08-30T15:00:59;15.19;84.75
18581;DHT22;9420;50.876;7.012;2023-08-30T15:03:25;15.38;85.22
18581;DHT22;9420;50.876;7.012;2023-08-30T15:05:52;15.38;83.59
18581;DHT22;9420;50.876;7.012;2023-08-30T15:08:21;15.51;84.94
18581;DHT22;9420;50.876;7.012;2023-08-30T15:10:49;15.42;83.97
18581;DHT22;9420;50.876;7.012;2023-08-30T15:13:16;15.66;83.58
18581;DHT22;9420;50.876;7.012;2023-08-30T15:15:43;16.41;81.85
18581;DHT22;9420;50.876;7.012;2023-08-30T15:18:10;17.83;79.17
18581;DHT22;9420;50.876;7.012;2023-08-30T15:20:37;18.92;74.48
18581;DHT22;9420;50.876;7.012;2023-08-30T15:23:03;18.40;76.25
18581;DHT22;9420;50.876;7.012;2023-08-30T15:25:30;19.29;74.65
18581;DHT22;9420;50.876;7.012;2023-08-30T15:27:59;17.36;79.97
18581;DHT22;9420;50.876;7.012;2023-08-30T15:30:25;16.83;79.21
18581;DHT22;9420;50.876;7.012;2023-08-30T15:32:52;16.53;79.89
18581;DHT22;9420;50.876;7.012;2023-08-30T15:35:19;16.83;80.23
18581;DHT22;9420;50.876;7.012;2023-08-30T15:37:46;17.23;78.01
18581;DHT22;9420;50.876;7.012;2023-08-30T15:40:13;17.25;80.46
18581;DHT22;9420;50.876;7.012;2023-08-30T15:42:40;18.16;77.01
18581;DHT22;9420;50.876;7.012;2023-08-30T15:45:08;18.06;77.42
18581;DHT22;9420;50.876;7.012;2023-08-30T15:47:35;17.52;78.74
18581;DHT22;9420;50.876;7.012;2023-08-30T15:50:02;17.36;76.38
18581;DHT22;9420;50.876;7.012;2023-08-30T15:52:29;16.75;78.49
18581;DHT22;9420;50.876;7.012;2023-08-30T15:54:56;16.99;77.78
18581;DHT22;9420;50.876;7.012;2023-08-30T15:57:23;17.41;78.65
18581;DHT22;9420;50.876;7.012;2023-08-30T15:59:50;17.46;76.46
18581;DHT22;9420;50.876;7.012;2023-08-30T16:02:18;17.52;76.99
18581;DHT22;9420;50.876;7.012;2023-08-30T16:04:45;18.67;74.54
18581;DHT22;9420;50.876;7.012;2023-08-30T16:07:12;19.50;72.63
18581;DHT22;9420;50.876;7.012;2023-08-30T16:09:39;21.20;70.49
18581;DHT22;9420;50.876;7.012;2023-08-30T16:12:06;22.08;67.15
18581;DHT22;9420;50.876;7.012;2023-08-30T16:14:33;21.79;66.45
18581;DHT22;9420;50.876;7.012;2023-08-30T16:17:00;21.41;67.23
18581;DHT22;9420;50.876;7.012;2023-08-30T16:19:28;21.75;66.42
18581;DHT22;9420;50.876;7.012;2023-08-30T16:21:55;21.39;67.37